createdAt,value
2022-11-20T00:01:01.818Z,49.505001
2022-11-20T00:02:09.427Z,49.547001
2022-11-20T00:03:19.012Z,49.499001
2022-11-20T00:04:28.610Z,49.547001
2022-11-20T00:05:38.162Z,49.570999
2022-11-20T00:06:46.732Z,49.583
2022-11-20T00:07:55.294Z,49.564999
2022-11-20T00:09:04.883Z,49.589001
2022-11-20T00:10:14.472Z,49.564999
2022-11-20T00:11:22.060Z,49.564999
2022-11-20T00:12:29.606Z,49.589001
2022-11-20T00:13:39.175Z,49.564999
2022-11-20T00:14:48.743Z,49.645
2022-11-20T00:15:57.301Z,49.657001
2022-11-20T00:17:06.854Z,49.645
2022-11-20T00:18:14.463Z,49.639
2022-11-20T00:19:24.076Z,49.688
2022-11-20T00:20:33.623Z,49.712002
2022-11-20T00:21:42.209Z,49.723999
2022-11-20T00:22:50.776Z,49.706001
2022-11-20T00:23:59.361Z,49.742001
2022-11-20T00:25:07.922Z,49.773998
2022-11-20T00:26:17.498Z,49.811001
2022-11-20T00:27:25.067Z,49.804001
2022-11-20T00:28:32.640Z,49.847
2022-11-20T00:29:42.244Z,49.859001
2022-11-20T00:30:50.785Z,49.847
2022-11-20T00:31:59.348Z,49.848
2022-11-20T00:33:08.924Z,49.886002
2022-11-20T00:34:17.504Z,49.835999
2022-11-20T00:35:27.127Z,49.812
2022-11-20T00:36:36.679Z,49.886002
2022-11-20T00:37:44.234Z,49.904999
2022-11-20T00:38:53.796Z,49.923
2022-11-20T00:40:02.373Z,49.941002
2022-11-20T00:41:10.938Z,49.994999
2022-11-20T00:42:19.505Z,50.014999
2022-11-20T00:43:28.081Z,50.063999
2022-11-20T00:44:37.647Z,50.076
2022-11-20T00:45:45.225Z,50.118
2022-11-20T00:46:52.794Z,50.160999
2022-11-20T00:48:02.377Z,50.148998
2022-11-20T00:49:10.961Z,50.168999
2022-11-20T00:50:19.559Z,50.112
2022-11-20T00:51:28.128Z,50.148998
2022-11-20T00:52:37.671Z,50.216999
2022-11-20T00:53:47.252Z,50.247002
2022-11-20T00:54:54.847Z,50.265999
2022-11-20T00:56:02.424Z,50.330002
2022-11-20T00:57:11.999Z,50.366001
2022-11-20T00:58:20.565Z,50.416
2022-11-20T00:59:29.163Z,50.389999
2022-11-20T01:00:37.733Z,50.441002
2022-11-20T01:01:46.302Z,50.429001
2022-11-20T01:02:54.888Z,50.452999
2022-11-20T01:04:03.461Z,50.446999
2022-11-20T01:05:11.031Z,50.465
2022-11-20T01:06:20.609Z,50.483002
2022-11-20T01:07:29.232Z,50.513
2022-11-20T01:08:37.739Z,50.526001
2022-11-20T01:09:46.337Z,50.537998
2022-11-20T01:10:54.886Z,50.562
2022-11-20T01:12:04.472Z,50.618999
2022-11-20T01:13:12.021Z,50.582001
2022-11-20T01:14:20.621Z,50.576
2022-11-20T01:15:30.202Z,50.588001
2022-11-20T01:16:38.774Z,50.582001
2022-11-20T01:17:47.364Z,50.618999
2022-11-20T01:18:55.937Z,50.631001
2022-11-20T01:20:04.522Z,50.643002
2022-11-20T01:21:14.110Z,50.643002
2022-11-20T01:22:23.659Z,50.648998
2022-11-20T01:23:31.218Z,50.660999
2022-11-20T01:24:39.797Z,50.703999
2022-11-20T01:25:48.358Z,50.701
2022-11-20T01:26:56.946Z,50.737999
2022-11-20T01:28:06.490Z,50.768002
2022-11-20T01:29:15.078Z,50.768002
2022-11-20T01:30:24.648Z,50.762001
2022-11-20T01:31:33.221Z,50.762001
2022-11-20T01:32:41.792Z,50.737999
2022-11-20T01:33:51.399Z,50.743999
2022-11-20T01:34:59.941Z,50.724998
2022-11-20T01:36:08.528Z,50.768002
2022-11-20T01:37:17.093Z,50.768002
2022-11-20T01:38:24.685Z,50.779999
2022-11-20T01:39:34.261Z,50.825001
2022-11-20T01:40:41.831Z,50.812
2022-11-20T01:41:50.387Z,50.804001
2022-11-20T01:42:59.969Z,50.762001
2022-11-20T01:44:08.527Z,50.768002
2022-11-20T01:45:17.114Z,50.773998
2022-11-20T01:46:25.685Z,50.812
2022-11-20T01:47:34.283Z,50.819
2022-11-20T01:48:43.839Z,50.785999
2022-11-20T01:49:52.428Z,50.756001
2022-11-20T01:51:01.012Z,50.773998
2022-11-20T01:52:10.585Z,50.792
2022-11-20T01:53:19.157Z,50.798
2022-11-20T01:54:27.741Z,50.779999
2022-11-20T01:55:36.297Z,50.779999
2022-11-20T01:56:44.874Z,50.772999
2022-11-20T01:57:54.455Z,50.772999
2022-11-20T01:59:02.019Z,50.772999
2022-11-20T02:00:09.620Z,50.785
2022-11-20T02:01:19.245Z,50.761002
2022-11-20T02:02:27.771Z,50.810001
2022-11-20T02:03:36.325Z,50.791
2022-11-20T02:04:45.909Z,50.848
2022-11-20T02:05:54.472Z,50.791
2022-11-20T02:07:04.090Z,50.791
2022-11-20T02:08:11.621Z,50.816002
2022-11-20T02:09:19.654Z,50.791
2022-11-20T02:10:28.804Z,50.804001
2022-11-20T02:11:37.353Z,50.810001
2022-11-20T02:12:45.929Z,50.860001
2022-11-20T02:13:55.542Z,50.848
2022-11-20T02:15:05.125Z,50.884998
2022-11-20T02:16:12.711Z,50.880001
2022-11-20T02:17:22.276Z,50.923
2022-11-20T02:18:30.821Z,50.973
2022-11-20T02:19:39.415Z,50.973
2022-11-20T02:20:47.998Z,50.986
2022-11-20T02:21:56.561Z,51.021999
2022-11-20T02:23:06.144Z,51.015999
2022-11-20T02:24:14.761Z,51.046001
2022-11-20T02:25:22.312Z,51.091
2022-11-20T02:26:31.887Z,51.097
2022-11-20T02:27:40.441Z,51.083
2022-11-20T02:28:49.010Z,51.126999
2022-11-20T02:29:57.589Z,51.152
2022-11-20T02:31:06.152Z,51.139999
2022-11-20T02:32:15.706Z,51.164001
2022-11-20T02:33:23.268Z,51.175999
2022-11-20T02:34:30.878Z,51.158001
2022-11-20T02:35:40.438Z,51.146
2022-11-20T02:36:49.002Z,51.181999
2022-11-20T02:37:57.584Z,51.164001
2022-11-20T02:39:06.124Z,51.169998
2022-11-20T02:40:14.707Z,51.212002
2022-11-20T02:41:24.297Z,51.200001
2022-11-20T02:42:31.860Z,51.207001
2022-11-20T02:43:39.419Z,51.200001
2022-11-20T02:44:49.016Z,51.224998
2022-11-20T02:45:57.549Z,51.263
2022-11-20T02:47:06.127Z,51.275002
2022-11-20T02:48:14.683Z,51.224998
2022-11-20T02:49:23.586Z,51.230999
2022-11-20T02:50:32.835Z,51.230999
2022-11-20T02:51:40.433Z,51.181999
2022-11-20T02:52:48.986Z,51.188
2022-11-20T02:53:57.569Z,51.164001
2022-11-20T02:55:06.177Z,51.175999
2022-11-20T02:56:14.739Z,51.181999
2022-11-20T02:57:24.314Z,51.164001
2022-11-20T02:58:32.894Z,51.181999
2022-11-20T02:59:40.457Z,51.164001
2022-11-20T03:00:50.047Z,51.169998
2022-11-20T03:01:58.630Z,51.172001
2022-11-20T03:03:07.190Z,51.159
2022-11-20T03:04:15.777Z,51.166
2022-11-20T03:05:25.363Z,51.166
2022-11-20T03:06:34.934Z,51.18
2022-11-20T03:07:42.558Z,51.186001
2022-11-20T03:08:50.040Z,51.192001
2022-11-20T03:09:59.623Z,51.198002
2022-11-20T03:11:08.199Z,51.198002
2022-11-20T03:12:16.778Z,51.209999
2022-11-20T03:13:25.381Z,51.192001
2022-11-20T03:14:33.951Z,51.216
2022-11-20T03:15:43.533Z,51.209999
2022-11-20T03:16:51.104Z,51.192001
2022-11-20T03:17:58.670Z,51.186001
2022-11-20T03:19:08.245Z,51.203999
2022-11-20T03:20:16.824Z,51.222
2022-11-20T03:21:25.382Z,51.209999
2022-11-20T03:22:33.969Z,51.222
2022-11-20T03:23:42.535Z,51.252998
2022-11-20T03:24:52.133Z,51.258999
2022-11-20T03:25:59.709Z,51.258999
2022-11-20T03:27:07.250Z,51.252998
2022-11-20T03:28:16.815Z,51.235001
2022-11-20T03:29:25.380Z,51.216
2022-11-20T03:30:33.953Z,51.247002
2022-11-20T03:31:42.528Z,51.222
2022-11-20T03:32:51.097Z,51.254002
2022-11-20T03:34:00.664Z,51.236
2022-11-20T03:35:08.223Z,51.217999
2022-11-20T03:36:16.802Z,51.223999
2022-11-20T03:37:26.383Z,51.223999
2022-11-20T03:38:34.944Z,51.217999
2022-11-20T03:39:43.518Z,51.212002
2022-11-20T03:40:52.091Z,51.236
2022-11-20T03:42:01.661Z,51.223999
2022-11-20T03:43:11.231Z,51.217999
2022-11-20T03:44:18.804Z,51.217999
2022-11-20T03:45:26.375Z,51.223999
2022-11-20T03:46:35.942Z,51.212002
2022-11-20T03:47:43.484Z,51.217999
2022-11-20T03:48:53.041Z,51.223999
2022-11-20T03:50:01.663Z,51.242001
2022-11-20T03:51:10.225Z,51.254002
2022-11-20T03:52:19.799Z,51.23
2022-11-20T03:53:27.413Z,51.242001
2022-11-20T03:54:34.977Z,51.23
2022-11-20T03:55:44.577Z,51.248001
2022-11-20T03:56:54.137Z,51.236
2022-11-20T03:58:02.698Z,51.254002
2022-11-20T03:59:11.271Z,51.259998
2022-11-20T04:00:20.846Z,51.259998
2022-11-20T04:01:30.489Z,51.259998
2022-11-20T04:02:37.976Z,51.248001
2022-11-20T04:03:46.533Z,51.242001
2022-11-20T04:04:56.118Z,51.242001
2022-11-20T04:06:04.688Z,51.254002
2022-11-20T04:07:14.302Z,51.248001
2022-11-20T04:08:22.842Z,51.271999
2022-11-20T04:09:32.416Z,51.271999
2022-11-20T04:10:39.996Z,51.23
2022-11-20T04:11:49.561Z,51.217999
2022-11-20T04:12:58.116Z,51.212002
2022-11-20T04:14:06.681Z,51.212002
2022-11-20T04:15:15.248Z,51.205002
2022-11-20T04:16:23.812Z,51.217999
2022-11-20T04:17:33.382Z,51.212002
2022-11-20T04:18:41.936Z,51.212002
2022-11-20T04:19:49.503Z,51.248001
2022-11-20T04:20:59.073Z,51.217999
2022-11-20T04:22:07.659Z,51.223999
2022-11-20T04:23:16.230Z,51.23
2022-11-20T04:24:25.792Z,51.265999
2022-11-20T04:25:35.380Z,51.248001
2022-11-20T04:26:44.945Z,51.259998
2022-11-20T04:27:52.507Z,51.293999
2022-11-20T04:29:01.067Z,51.276001
2022-11-20T04:30:10.665Z,51.287998
2022-11-20T04:31:19.225Z,51.313
2022-11-20T04:32:27.805Z,51.300999
2022-11-20T04:33:36.356Z,51.325001
2022-11-20T04:34:45.944Z,51.325001
2022-11-20T04:35:55.514Z,51.337002
2022-11-20T04:37:03.084Z,51.361
2022-11-20T04:38:10.659Z,51.386002
2022-11-20T04:39:20.594Z,51.405998
2022-11-20T04:40:28.832Z,51.397999
2022-11-20T04:41:36.392Z,51.443001
2022-11-20T04:42:44.960Z,51.455002
2022-11-20T04:43:53.531Z,51.460999
2022-11-20T04:45:03.143Z,51.449001
2022-11-20T04:46:10.711Z,51.424
2022-11-20T04:47:19.288Z,51.449001
2022-11-20T04:48:28.883Z,51.449001
2022-11-20T04:49:37.456Z,51.449001
2022-11-20T04:50:46.041Z,51.466999
2022-11-20T04:51:54.622Z,51.449001
2022-11-20T04:53:03.195Z,51.455002
2022-11-20T04:54:12.782Z,51.460999
2022-11-20T04:55:21.378Z,51.460999
2022-11-20T04:56:28.938Z,51.460999
2022-11-20T04:57:38.531Z,51.466999
2022-11-20T04:58:46.088Z,51.455002
2022-11-20T04:59:55.670Z,51.455002
2022-11-20T05:01:04.247Z,51.479
2022-11-20T05:02:12.817Z,51.479
2022-11-20T05:03:22.364Z,51.502998
2022-11-20T05:04:29.929Z,51.473
2022-11-20T05:05:38.498Z,51.460999
2022-11-20T05:06:48.063Z,51.485001
2022-11-20T05:07:56.635Z,51.497002
2022-11-20T05:09:05.235Z,51.551998
2022-11-20T05:10:13.773Z,51.566002
2022-11-20T05:11:22.349Z,51.591
2022-11-20T05:12:31.923Z,51.615002
2022-11-20T05:13:40.494Z,51.609001
2022-11-20T05:14:48.063Z,51.578999
2022-11-20T05:15:57.665Z,51.546001
2022-11-20T05:17:06.203Z,51.502998
2022-11-20T05:18:14.778Z,51.473
2022-11-20T05:19:23.523Z,51.43
2022-11-20T05:20:31.932Z,51.455002
2022-11-20T05:21:41.515Z,51.424
2022-11-20T05:22:50.088Z,51.386002
2022-11-20T05:23:57.631Z,51.367001
2022-11-20T05:25:07.219Z,51.367001
2022-11-20T05:26:15.783Z,51.355
2022-11-20T05:27:24.370Z,51.348999
2022-11-20T05:28:32.931Z,51.319
2022-11-20T05:29:41.512Z,51.361
2022-11-20T05:30:51.097Z,51.325001
2022-11-20T05:31:59.662Z,51.282001
2022-11-20T05:33:07.233Z,51.293999
2022-11-20T05:34:16.809Z,51.287998
2022-11-20T05:35:25.401Z,51.257999
2022-11-20T05:36:33.952Z,51.230999
2022-11-20T05:37:42.530Z,51.207001
2022-11-20T05:38:54.546Z,51.176998
2022-11-20T05:40:02.670Z,51.171001
2022-11-20T05:41:11.236Z,51.152
2022-11-20T05:42:18.810Z,51.091999
2022-11-20T05:43:28.372Z,51.127998
2022-11-20T05:44:36.938Z,51.110001
2022-11-20T05:45:45.514Z,51.098999
2022-11-20T05:46:54.069Z,51.075001
2022-11-20T05:48:02.645Z,51.081001
2022-11-20T05:49:12.235Z,51.063
2022-11-20T05:50:19.791Z,51.069
2022-11-20T05:51:27.363Z,51.063
2022-11-20T05:52:36.951Z,51.050999
2022-11-20T05:53:48.457Z,51.018002
2022-11-20T05:54:54.050Z,50.964001
2022-11-20T05:56:02.656Z,50.970001
2022-11-20T05:57:11.187Z,50.938999
2022-11-20T05:58:20.765Z,50.945
2022-11-20T05:59:29.314Z,50.926998
2022-11-20T06:00:36.900Z,50.926998
2022-11-20T06:01:46.474Z,50.909
2022-11-20T06:02:55.091Z,50.926998
2022-11-20T06:04:04.597Z,51.087002
2022-11-20T06:05:13.205Z,51.193001
2022-11-20T06:06:22.772Z,51.278
2022-11-20T06:07:30.403Z,51.32
2022-11-20T06:08:39.920Z,51.341
2022-11-20T06:09:49.495Z,51.307999
2022-11-20T06:10:59.062Z,51.301998
2022-11-20T06:12:07.632Z,51.284
2022-11-20T06:13:16.201Z,51.247002
2022-11-20T06:14:25.861Z,51.223
2022-11-20T06:15:34.406Z,51.216999
2022-11-20T06:16:41.969Z,51.205002
2022-11-20T06:17:51.510Z,51.172001
2022-11-20T06:19:00.085Z,51.16
2022-11-20T06:20:08.659Z,51.187
2022-11-20T06:21:18.249Z,51.169998
2022-11-20T06:22:26.813Z,51.145
2022-11-20T06:23:36.419Z,51.101002
2022-11-20T06:24:43.971Z,51.058998
2022-11-20T06:25:52.566Z,51.040001
2022-11-20T06:27:02.176Z,51.004002
2022-11-20T06:28:10.770Z,50.952999
2022-11-20T06:29:20.753Z,50.929001
2022-11-20T06:30:30.953Z,50.880001
2022-11-20T06:31:39.578Z,50.874001
2022-11-20T06:32:49.133Z,50.82
2022-11-20T06:33:56.722Z,50.868
2022-11-20T06:35:04.293Z,50.886002
2022-11-20T06:36:13.919Z,50.923
2022-11-20T06:37:22.485Z,50.926998
2022-11-20T06:38:31.071Z,50.951
2022-11-20T06:39:40.650Z,50.909
2022-11-20T06:40:49.212Z,50.719002
2022-11-20T06:41:59.436Z,50.514
2022-11-20T06:43:07.384Z,50.667999
2022-11-20T06:44:15.953Z,50.724998
2022-11-20T06:45:25.585Z,50.810001
2022-11-20T06:46:34.169Z,50.866001
2022-11-20T06:47:42.763Z,50.921001
2022-11-20T06:48:50.358Z,50.976002
2022-11-20T06:49:58.894Z,51.012001
2022-11-20T06:51:08.509Z,51.069
2022-11-20T06:52:17.099Z,51.092999
2022-11-20T06:53:24.678Z,51.112
2022-11-20T06:54:34.272Z,51.136002
2022-11-20T06:55:42.857Z,51.153999
2022-11-20T06:56:51.420Z,51.127998
2022-11-20T06:58:00.027Z,51.077
2022-11-20T06:59:09.593Z,51.064999
2022-11-20T07:00:19.192Z,50.938
2022-11-20T07:01:27.777Z,50.82
2022-11-20T07:02:36.380Z,50.647999
2022-11-20T07:03:48.967Z,50.610001
2022-11-20T07:04:55.527Z,50.567001
2022-11-20T07:06:05.129Z,50.580002
2022-11-20T07:07:14.752Z,50.604
2022-11-20T07:08:22.263Z,50.653999
2022-11-20T07:09:30.829Z,50.647999
2022-11-20T07:10:39.402Z,50.641998
2022-11-20T07:11:47.995Z,50.647999
2022-11-20T07:12:57.578Z,50.673
2022-11-20T07:14:06.164Z,50.678001
2022-11-20T07:15:15.983Z,50.66
2022-11-20T07:16:25.550Z,50.685001
2022-11-20T07:17:34.117Z,50.696999
2022-11-20T07:18:48.983Z,50.702999
2022-11-20T07:19:54.306Z,50.733002
2022-11-20T07:21:01.885Z,50.763
2022-11-20T07:22:11.448Z,50.801998
2022-11-20T07:23:20.206Z,50.844002
2022-11-20T07:24:28.803Z,50.832001
2022-11-20T07:25:37.393Z,50.813999
2022-11-20T07:26:45.982Z,50.862999
2022-11-20T07:27:55.597Z,50.910999
2022-11-20T07:29:03.215Z,50.931
2022-11-20T07:30:10.791Z,50.931
2022-11-20T07:31:20.430Z,50.98
2022-11-20T07:32:29.068Z,50.998001
2022-11-20T07:33:38.662Z,51.028999
2022-11-20T07:34:47.311Z,51.014999
2022-11-20T07:35:56.035Z,51.002998
2022-11-20T07:37:10.155Z,51.021
2022-11-20T07:38:15.189Z,51.033001
2022-11-20T07:39:23.931Z,51.050999
2022-11-20T07:40:33.437Z,51.063
2022-11-20T07:41:42.048Z,51.07
2022-11-20T07:42:50.608Z,51.094002
2022-11-20T07:43:59.210Z,51.088001
2022-11-20T07:45:08.824Z,51.076
2022-11-20T07:46:18.489Z,51.082001
2022-11-20T07:47:26.079Z,51.063999
2022-11-20T07:48:33.666Z,51.094002
2022-11-20T07:49:43.277Z,51.082001
2022-11-20T07:50:51.858Z,51.088001
2022-11-20T07:52:04.635Z,51.082001
2022-11-20T07:53:09.998Z,51.082001
2022-11-20T07:54:18.571Z,51.082001
2022-11-20T07:55:28.197Z,51.057999
2022-11-20T07:56:35.834Z,51.046001
2022-11-20T07:57:43.382Z,51.051998
2022-11-20T07:58:52.993Z,51.026001
2022-11-20T08:00:01.576Z,51.026001
2022-11-20T08:01:11.245Z,51.018002
2022-11-20T08:02:19.780Z,51.026001
2022-11-20T08:03:28.341Z,51.018002
2022-11-20T08:04:35.987Z,51.011002
2022-11-20T08:05:45.627Z,50.987
2022-11-20T08:06:54.216Z,50.974998
2022-11-20T08:08:02.831Z,50.945
2022-11-20T08:09:11.393Z,50.938999
2022-11-20T08:10:20.035Z,50.923
2022-11-20T08:11:29.710Z,50.897999
2022-11-20T08:12:37.309Z,50.880001
2022-11-20T08:13:45.889Z,50.874001
2022-11-20T08:14:55.477Z,50.862
2022-11-20T08:16:05.070Z,50.849998
2022-11-20T08:17:13.721Z,50.855999
2022-11-20T08:18:31.529Z,50.844002
2022-11-20T08:19:31.920Z,50.838001
2022-11-20T08:20:41.504Z,50.832001
2022-11-20T08:21:50.165Z,50.813
2022-11-20T08:22:57.795Z,50.777
2022-11-20T08:24:07.371Z,50.772999
2022-11-20T08:25:15.961Z,50.772999
2022-11-20T08:26:24.650Z,50.761002
2022-11-20T08:27:33.270Z,50.749001
2022-11-20T08:28:41.849Z,50.737
2022-11-20T08:29:51.429Z,50.730999
2022-11-20T08:30:59.084Z,50.707001
2022-11-20T08:32:06.693Z,50.707001
2022-11-20T08:33:16.268Z,50.713001
2022-11-20T08:34:24.892Z,50.701
2022-11-20T08:35:33.458Z,50.695
2022-11-20T08:36:42.060Z,50.707001
2022-11-20T08:37:50.643Z,50.701
2022-11-20T08:39:00.262Z,50.695
2022-11-20T08:40:07.844Z,50.719002
2022-11-20T08:41:16.409Z,50.731998
2022-11-20T08:42:25.989Z,50.731998
2022-11-20T08:43:34.649Z,50.762001
2022-11-20T08:44:43.142Z,50.768002
2022-11-20T08:45:52.863Z,50.804001
2022-11-20T08:47:01.453Z,50.848999
2022-11-20T08:48:11.093Z,50.861
2022-11-20T08:49:18.795Z,50.879002
2022-11-20T08:50:26.215Z,50.879002
2022-11-20T08:51:35.912Z,50.939999
2022-11-20T08:52:44.424Z,50.952
2022-11-20T08:53:52.981Z,50.964001
2022-11-20T08:55:01.572Z,50.987
2022-11-20T08:56:10.210Z,50.993
2022-11-20T08:57:19.837Z,50.963001
2022-11-20T08:58:28.391Z,50.980999
2022-11-20T09:00:04.840Z,50.980999
2022-11-20T09:00:49.693Z,51.005001
2022-11-20T09:01:58.206Z,51.049999
2022-11-20T09:03:06.825Z,50.987
2022-11-20T09:04:15.444Z,51.016998
2022-11-20T09:05:23.930Z,51.016998
2022-11-20T09:06:33.524Z,51.037998
2022-11-20T09:07:41.093Z,50.993
2022-11-20T09:08:49.674Z,50.987
2022-11-20T09:10:22.460Z,51.011002
2022-11-20T09:11:09.841Z,50.991001
2022-11-20T09:12:18.432Z,51.151001
2022-11-20T09:13:27.165Z,51.324001
2022-11-20T09:14:35.717Z,51.502998
2022-11-20T09:15:46.304Z,51.596001
2022-11-20T09:16:53.902Z,51.687
2022-11-20T09:18:01.448Z,51.763
2022-11-20T09:19:40.860Z,51.835999
2022-11-20T09:20:21.719Z,51.881001
2022-11-20T09:21:30.199Z,51.948002
2022-11-20T09:22:38.789Z,51.979
2022-11-20T09:23:47.352Z,52.021
2022-11-20T09:24:56.991Z,52.091
2022-11-20T09:26:04.564Z,52.152
2022-11-20T09:27:14.257Z,52.164001
2022-11-20T09:28:24.152Z,52.202999
2022-11-20T09:29:33.695Z,52.210999
2022-11-20T09:30:42.273Z,52.236
2022-11-20T09:31:50.846Z,52.286999
2022-11-20T09:33:00.380Z,52.299
2022-11-20T09:34:10.112Z,52.317001
2022-11-20T09:35:18.766Z,52.317001
2022-11-20T09:36:27.358Z,52.341
2022-11-20T09:37:36.934Z,52.334999
2022-11-20T09:38:45.512Z,52.353001
2022-11-20T09:39:54.099Z,52.353001
2022-11-20T09:41:03.725Z,52.347
2022-11-20T09:42:13.360Z,52.358002
2022-11-20T09:43:22.942Z,52.363998
2022-11-20T09:44:32.675Z,52.363998
2022-11-20T09:45:40.260Z,52.358002
2022-11-20T09:46:49.839Z,52.352001
2022-11-20T09:47:59.374Z,52.368
2022-11-20T09:49:07.929Z,52.335999
2022-11-20T09:50:17.498Z,52.305
2022-11-20T09:51:27.067Z,52.299
2022-11-20T09:52:36.636Z,52.310001
2022-11-20T09:53:45.266Z,52.316002
2022-11-20T09:54:52.876Z,52.278999
2022-11-20T09:56:02.543Z,52.216
2022-11-20T09:57:11.143Z,52.280998
2022-11-20T09:58:19.703Z,52.299999
2022-11-20T09:59:28.365Z,52.304001
2022-11-20T10:00:37.235Z,52.304001
2022-11-20T10:01:44.687Z,52.317001
2022-11-20T10:02:54.256Z,52.311001
2022-11-20T10:04:02.868Z,52.314999
2022-11-20T10:05:11.421Z,52.300999
2022-11-20T10:06:20.205Z,52.293999
2022-11-20T10:07:32.508Z,52.282001
2022-11-20T10:08:39.259Z,52.276001
2022-11-20T10:09:46.803Z,52.269001
2022-11-20T10:10:56.394Z,52.237999
2022-11-20T10:12:05.969Z,52.213001
2022-11-20T10:13:14.601Z,52.219002
2022-11-20T10:14:24.240Z,52.203999
2022-11-20T10:15:32.848Z,52.196999
2022-11-20T10:16:42.412Z,52.207001
2022-11-20T10:17:52.042Z,52.195
2022-11-20T10:18:59.609Z,52.185001
2022-11-20T10:20:07.168Z,52.185001
2022-11-20T10:21:16.718Z,52.179001
2022-11-20T10:22:25.320Z,52.154999
2022-11-20T10:23:33.925Z,52.154999
2022-11-20T10:24:43.560Z,52.165001
2022-11-20T10:25:52.147Z,52.159
2022-11-20T10:27:01.813Z,52.159
2022-11-20T10:28:09.391Z,52.153
2022-11-20T10:29:17.960Z,52.159
2022-11-20T10:30:27.539Z,52.171001
2022-11-20T10:31:36.115Z,52.153
2022-11-20T10:32:44.679Z,52.154999
2022-11-20T10:34:12.863Z,52.167
2022-11-20T10:35:02.833Z,52.143002
2022-11-20T10:36:12.456Z,52.143002
2022-11-20T10:37:21.039Z,52.138
2022-11-20T10:38:28.635Z,52.132
2022-11-20T10:39:38.212Z,52.125999
2022-11-20T10:40:46.766Z,52.113998
2022-11-20T10:41:55.343Z,52.118
2022-11-20T10:43:03.956Z,52.130001
2022-11-20T10:44:13.537Z,52.136002
2022-11-20T10:45:23.107Z,52.118
2022-11-20T10:46:30.712Z,52.124001
2022-11-20T10:47:39.284Z,52.119999
2022-11-20T10:48:48.893Z,52.09
2022-11-20T10:49:57.515Z,52.09
2022-11-20T10:51:06.278Z,52.083
2022-11-20T10:52:16.025Z,52.083
2022-11-20T10:53:24.712Z,52.09
2022-11-20T10:54:34.316Z,52.088001
2022-11-20T10:55:41.892Z,52.076
2022-11-20T10:56:51.484Z,52.069
2022-11-20T10:58:01.036Z,52.069
2022-11-20T10:59:09.607Z,52.063999
2022-11-20T11:00:19.162Z,52.063999
2022-11-20T11:01:27.866Z,52.07
2022-11-20T11:02:36.352Z,52.044998
2022-11-20T11:03:45.956Z,52.048
2022-11-20T11:04:53.543Z,52.048
2022-11-20T11:06:02.163Z,52.048
2022-11-20T11:07:11.724Z,51.999001
2022-11-20T11:08:20.264Z,51.977001
2022-11-20T11:09:28.807Z,51.958
2022-11-20T11:10:37.369Z,51.916
2022-11-20T11:11:46.936Z,51.91
2022-11-20T11:12:56.511Z,51.891998
2022-11-20T11:14:04.080Z,51.897999
2022-11-20T11:15:11.675Z,51.842999
2022-11-20T11:16:21.230Z,51.842999
2022-11-20T11:17:29.800Z,51.837002
2022-11-20T11:18:38.348Z,51.813
2022-11-20T11:19:46.942Z,51.779999
2022-11-20T11:20:56.476Z,51.778999
2022-11-20T11:22:06.061Z,51.759998
2022-11-20T11:23:13.623Z,51.742001
2022-11-20T11:24:40.849Z,51.723999
2022-11-20T11:25:33.735Z,51.702999
2022-11-20T11:26:42.325Z,51.688999
2022-11-20T11:27:50.881Z,51.653
2022-11-20T11:29:00.453Z,51.659
2022-11-20T11:30:09.076Z,51.682999
2022-11-20T11:31:18.647Z,51.701
2022-11-20T11:32:26.216Z,51.720001
2022-11-20T11:33:33.765Z,51.723999
2022-11-20T11:34:43.320Z,51.761002
2022-11-20T11:35:51.982Z,51.755001
2022-11-20T11:37:00.465Z,51.749001
2022-11-20T11:38:09.031Z,51.755001
2022-11-20T11:39:17.590Z,51.755001
2022-11-20T11:40:27.179Z,51.755001
2022-11-20T11:41:34.724Z,51.755001
2022-11-20T11:42:42.303Z,51.737
2022-11-20T11:43:51.860Z,51.761002
2022-11-20T11:45:00.440Z,51.740002
2022-11-20T11:46:08.998Z,51.734001
2022-11-20T11:47:17.554Z,51.734001
2022-11-20T11:48:26.094Z,51.714001
2022-11-20T11:49:35.682Z,51.651001
2022-11-20T11:50:44.240Z,51.662998
2022-11-20T11:51:52.815Z,51.657001
2022-11-20T11:53:02.416Z,51.631001
2022-11-20T11:54:10.944Z,51.594002
2022-11-20T11:55:19.514Z,51.57
2022-11-20T11:56:29.097Z,51.562
2022-11-20T11:57:37.664Z,51.523998
2022-11-20T11:58:45.225Z,51.499001
2022-11-20T11:59:54.820Z,51.463001
2022-11-20T12:01:03.397Z,51.444
2022-11-20T12:02:13.040Z,51.408001
2022-11-20T12:03:21.593Z,51.391998
2022-11-20T12:04:30.158Z,51.361
2022-11-20T12:05:39.734Z,51.361
2022-11-20T12:06:47.304Z,51.311001
2022-11-20T12:07:55.923Z,51.285999
2022-11-20T12:09:05.469Z,51.268002
2022-11-20T12:10:14.019Z,51.243999
2022-11-20T12:11:23.651Z,51.226002
2022-11-20T12:12:32.246Z,51.202
2022-11-20T12:13:40.818Z,51.176998
2022-11-20T12:14:50.393Z,51.115002
2022-11-20T12:15:58.982Z,51.096001
2022-11-20T12:17:06.741Z,51.120998
2022-11-20T12:18:16.327Z,51.066002
2022-11-20T12:19:25.151Z,51.060001
2022-11-20T12:20:33.469Z,51.096001
2022-11-20T12:21:42.054Z,51.106998
2022-11-20T12:22:50.664Z,51.167999
2022-11-20T12:24:00.287Z,51.186001
2022-11-20T12:25:07.843Z,51.212002
2022-11-20T12:26:15.495Z,51.198002
2022-11-20T12:27:25.128Z,51.203999
2022-11-20T12:28:33.691Z,51.198002
2022-11-20T12:29:42.251Z,51.18
2022-11-20T12:30:50.804Z,51.174
2022-11-20T12:31:59.367Z,51.183998
2022-11-20T12:33:08.984Z,51.172001
2022-11-20T12:34:17.544Z,51.196999
2022-11-20T12:35:26.162Z,51.196999
2022-11-20T12:36:35.717Z,51.183998
2022-11-20T12:37:45.319Z,51.178001
2022-11-20T12:38:53.936Z,51.209
2022-11-20T12:40:02.560Z,51.189999
2022-11-20T12:41:11.068Z,51.196999
2022-11-20T12:42:20.652Z,51.202999
2022-11-20T12:43:29.232Z,51.202999
2022-11-20T12:44:36.779Z,51.215
2022-11-20T12:45:46.332Z,51.221001
2022-11-20T12:46:54.881Z,51.221001
2022-11-20T12:48:03.464Z,51.243
2022-11-20T12:49:13.026Z,51.268002
2022-11-20T12:50:21.583Z,51.256001
2022-11-20T12:51:31.142Z,51.285999
2022-11-20T12:52:39.722Z,51.279999
2022-11-20T12:53:47.253Z,51.285999
2022-11-20T12:54:56.843Z,51.279999
2022-11-20T12:56:05.411Z,51.298
2022-11-20T12:57:13.998Z,51.298
2022-11-20T12:58:22.604Z,51.306999
2022-11-20T12:59:31.158Z,51.306999
2022-11-20T13:00:40.700Z,51.273998
2022-11-20T13:01:48.276Z,51.293999
2022-11-20T13:02:56.859Z,51.285999
2022-11-20T13:04:09.351Z,51.306999
2022-11-20T13:05:15.953Z,51.319
2022-11-20T13:06:25.592Z,51.319
2022-11-20T13:07:34.209Z,51.314999
2022-11-20T13:08:42.738Z,51.333
2022-11-20T13:09:52.299Z,51.320999
2022-11-20T13:11:00.013Z,51.320999
2022-11-20T13:12:08.502Z,51.320999
2022-11-20T13:13:17.097Z,51.339001
2022-11-20T13:14:25.703Z,51.338001
2022-11-20T13:15:34.282Z,51.349998
2022-11-20T13:16:42.841Z,51.325001
2022-11-20T13:17:51.421Z,51.349998
2022-11-20T13:19:00.978Z,51.338001
2022-11-20T13:20:07.582Z,51.349998
2022-11-20T13:21:15.149Z,51.332001
2022-11-20T13:22:24.724Z,51.332001
2022-11-20T13:23:34.311Z,51.325001